sensor_id;sensor_type;location;lat;lon;timestamp;pressure;altitude;pressure_sealevel;temperature;humidity
40838;BME280;29632;49.168;9.848;2022-11-21T00:03:43;95877.50;;;8.77;55.16
40838;BME280;29632;49.168;9.848;2022-11-21T00:06:09;95872.91;;;8.71;55.28
40838;BME280;29632;49.168;9.848;2022-11-21T00:08:35;95875.00;;;8.67;55.20
40838;BME280;29632;49.168;9.848;2022-11-21T00:11:00;95868.50;;;8.63;54.85
40838;BME280;29632;49.168;9.848;2022-11-21T00:13:26;95864.56;;;8.59;55.15
40838;BME280;29632;49.168;9.848;2022-11-21T00:15:52;95859.84;;;8.55;55.47
40838;BME280;29632;49.168;9.848;2022-11-21T00:18:17;95860.97;;;8.52;55.23
40838;BME280;29632;49.168;9.848;2022-11-21T00:20:43;95860.97;;;8.52;55.42
40838;BME280;29632;49.168;9.848;2022-11-21T00:23:10;95867.78;;;8.53;55.58
40838;BME280;29632;49.168;9.848;2022-11-21T00:25:36;95854.16;;;8.51;55.16
40838;BME280;29632;49.168;9.848;2022-11-21T00:28:03;95843.78;;;8.51;55.61
40838;BME280;29632;49.168;9.848;2022-11-21T00:30:29;95847.34;;;8.50;55.45
40838;BME280;29632;49.168;9.848;2022-11-21T00:32:54;95857.84;;;8.48;55.08
40838;BME280;29632;49.168;9.848;2022-11-21T00:35:22;95845.03;;;8.47;55.59
40838;BME280;29632;49.168;9.848;2022-11-21T00:37:47;95852.66;;;8.48;55.04
40838;BME280;29632;49.168;9.848;2022-11-21T00:40:15;95848.13;;;8.50;55.51
40838;BME280;29632;49.168;9.848;2022-11-21T00:42:42;95847.47;;;8.48;55.15
40838;BME280;29632;49.168;9.848;2022-11-21T00:45:08;95841.63;;;8.46;55.49
40838;BME280;29632;49.168;9.848;2022-11-21T00:47:33;95840.69;;;8.47;55.66
40838;BME280;29632;49.168;9.848;2022-11-21T00:49:59;95840.69;;;8.47;55.55
40838;BME280;29632;49.168;9.848;2022-11-21T00:52:25;95839.84;;;8.47;55.45
40838;BME280;29632;49.168;9.848;2022-11-21T00:54:50;95831.09;;;8.48;55.47
40838;BME280;29632;49.168;9.848;2022-11-21T00:57:16;95830.94;;;8.49;55.54
40838;BME280;29632;49.168;9.848;2022-11-21T00:59:41;95831.91;;;8.48;55.38
40838;BME280;29632;49.168;9.848;2022-11-21T01:02:07;95824.41;;;8.45;55.44
40838;BME280;29632;49.168;9.848;2022-11-21T01:04:33;95821.97;;;8.44;55.24
40838;BME280;29632;49.168;9.848;2022-11-21T01:06:59;95814.38;;;8.42;55.33
40838;BME280;29632;49.168;9.848;2022-11-21T01:09:25;95817.25;;;8.39;55.32
40838;BME280;29632;49.168;9.848;2022-11-21T01:11:53;95812.06;;;8.39;55.19
40838;BME280;29632;49.168;9.848;2022-11-21T01:14:19;95807.00;;;8.38;55.65
40838;BME280;29632;49.168;9.848;2022-11-21T01:16:44;95815.91;;;8.35;55.57
40838;BME280;29632;49.168;9.848;2022-11-21T01:19:10;95807.00;;;8.38;55.57
40838;BME280;29632;49.168;9.848;2022-11-21T01:21:36;95814.19;;;8.44;55.24
40838;BME280;29632;49.168;9.848;2022-11-21T01:24:01;95818.13;;;8.48;55.16
40838;BME280;29632;49.168;9.848;2022-11-21T01:26:29;95823.97;;;8.50;55.39
40838;BME280;29632;49.168;9.848;2022-11-21T01:28:56;95811.94;;;8.49;55.22
40838;BME280;29632;49.168;9.848;2022-11-21T01:31:24;95808.56;;;8.48;55.21
40838;BME280;29632;49.168;9.848;2022-11-21T01:33:50;95812.78;;;8.49;55.44
40838;BME280;29632;49.168;9.848;2022-11-21T01:36:28;95811.00;;;8.50;55.18
40838;BME280;29632;49.168;9.848;2022-11-21T01:38:55;95804.84;;;8.51;55.42
40838;BME280;29632;49.168;9.848;2022-11-21T01:41:30;95803.72;;;8.54;55.50
40838;BME280;29632;49.168;9.848;2022-11-21T01:43:58;95802.25;;;8.51;55.02
40838;BME280;29632;49.168;9.848;2022-11-21T01:46:25;95812.78;;;8.49;55.01
40838;BME280;29632;49.168;9.848;2022-11-21T01:48:57;95820.56;;;8.49;55.57
40838;BME280;29632;49.168;9.848;2022-11-21T01:59:26;95821.22;;;8.52;55.49
40838;BME280;29632;49.168;9.848;2022-11-21T02:01:53;95807.25;;;8.53;54.73
40838;BME280;29632;49.168;9.848;2022-11-21T02:04:20;95816.69;;;8.54;55.44
40838;BME280;29632;49.168;9.848;2022-11-21T02:06:46;95812.00;;;8.57;55.40
40838;BME280;29632;49.168;9.848;2022-11-21T02:09:12;95811.56;;;8.62;55.45
40838;BME280;29632;49.168;9.848;2022-11-21T02:11:46;95819.03;;;8.65;55.05
40838;BME280;29632;49.168;9.848;2022-11-21T02:14:14;95816.75;;;8.70;55.30
40838;BME280;29632;49.168;9.848;2022-11-21T02:16:39;95811.91;;;8.75;54.97
40838;BME280;29632;49.168;9.848;2022-11-21T02:19:08;95801.22;;;8.78;55.24
40838;BME280;29632;49.168;9.848;2022-11-21T02:21:42;95800.75;;;8.83;55.35
40838;BME280;29632;49.168;9.848;2022-11-21T02:26:52;95797.88;;;8.86;55.21
40838;BME280;29632;49.168;9.848;2022-11-21T02:29:18;95798.16;;;8.83;55.16
40838;BME280;29632;49.168;9.848;2022-11-21T02:31:44;95792.78;;;8.76;55.14
40838;BME280;29632;49.168;9.848;2022-11-21T02:34:09;95798.94;;;8.75;55.00
40838;BME280;29632;49.168;9.848;2022-11-21T02:36:45;95806.22;;;8.72;55.20
40838;BME280;29632;49.168;9.848;2022-11-21T02:39:22;95802.66;;;8.73;55.38
40838;BME280;29632;49.168;9.848;2022-11-21T02:47:55;95801.88;;;8.72;55.64
40838;BME280;29632;49.168;9.848;2022-11-21T02:50:24;95796.84;;;8.79;55.44
40838;BME280;29632;49.168;9.848;2022-11-21T02:52:50;95795.56;;;8.83;55.35
40838;BME280;29632;49.168;9.848;2022-11-21T02:55:16;95789.22;;;8.85;55.57
40838;BME280;29632;49.168;9.848;2022-11-21T02:57:42;95790.06;;;8.86;55.42
40838;BME280;29632;49.168;9.848;2022-11-21T03:00:08;95785.84;;;8.85;55.34
40838;BME280;29632;49.168;9.848;2022-11-21T03:02:34;95778.50;;;8.80;55.15
40838;BME280;29632;49.168;9.848;2022-11-21T03:05:01;95775.25;;;8.78;55.25
40838;BME280;29632;49.168;9.848;2022-11-21T03:07:27;95773.47;;;8.79;54.99
40838;BME280;29632;49.168;9.848;2022-11-21T03:09:52;95777.19;;;8.76;55.24
40838;BME280;29632;49.168;9.848;2022-11-21T03:12:18;95772.16;;;8.75;55.27
40838;BME280;29632;49.168;9.848;2022-11-21T03:14:44;95808.00;;;8.71;55.61
40838;BME280;29632;49.168;9.848;2022-11-21T03:17:09;95778.31;;;8.65;55.04
40838;BME280;29632;49.168;9.848;2022-11-21T03:19:35;95784.09;;;8.59;55.35
40838;BME280;29632;49.168;9.848;2022-11-21T03:22:01;95794.28;;;8.53;55.80
40838;BME280;29632;49.168;9.848;2022-11-21T03:24:26;95789.72;;;8.46;55.46
40838;BME280;29632;49.168;9.848;2022-11-21T03:26:52;95782.38;;;8.42;55.59
40838;BME280;29632;49.168;9.848;2022-11-21T03:29:18;95783.66;;;8.38;55.75
40838;BME280;29632;49.168;9.848;2022-11-21T03:31:43;95790.78;;;8.36;55.63
40838;BME280;29632;49.168;9.848;2022-11-21T03:34:09;95796.78;;;8.36;55.52
40838;BME280;29632;49.168;9.848;2022-11-21T03:36:35;95789.00;;;8.36;55.68
40838;BME280;29632;49.168;9.848;2022-11-21T03:39:00;95791.44;;;8.38;55.77
40838;BME280;29632;49.168;9.848;2022-11-21T03:41:26;95792.91;;;8.40;55.63
40838;BME280;29632;49.168;9.848;2022-11-21T03:44:02;95784.03;;;8.43;55.29
40838;BME280;29632;49.168;9.848;2022-11-21T03:46:30;95779.94;;;8.40;55.34
40838;BME280;29632;49.168;9.848;2022-11-21T03:48:56;95785.13;;;8.40;55.46
40838;BME280;29632;49.168;9.848;2022-11-21T03:51:22;95772.63;;;8.36;55.11
40838;BME280;29632;49.168;9.848;2022-11-21T03:53:48;95772.28;;;8.30;55.82
40838;BME280;29632;49.168;9.848;2022-11-21T03:56:14;95768.03;;;8.21;55.88
40838;BME280;29632;49.168;9.848;2022-11-21T03:58:40;95771.06;;;8.17;55.56
40838;BME280;29632;49.168;9.848;2022-11-21T04:01:05;95772.84;;;8.16;55.75
40838;BME280;29632;49.168;9.848;2022-11-21T04:03:31;95774.59;;;8.16;55.03
40838;BME280;29632;49.168;9.848;2022-11-21T04:05:57;95768.78;;;8.13;55.86
40838;BME280;29632;49.168;9.848;2022-11-21T04:08:23;95770.25;;;8.16;55.50
40838;BME280;29632;49.168;9.848;2022-11-21T04:10:50;95770.75;;;8.20;55.35
40838;BME280;29632;49.168;9.848;2022-11-21T04:13:16;95778.22;;;8.23;55.18
40838;BME280;29632;49.168;9.848;2022-11-21T04:15:43;95775.97;;;8.28;55.10
40838;BME280;29632;49.168;9.848;2022-11-21T04:18:10;95769.19;;;8.27;55.54
40838;BME280;29632;49.168;9.848;2022-11-21T04:20:36;95771.78;;;8.27;55.41
40838;BME280;29632;49.168;9.848;2022-11-21T04:23:02;95762.19;;;8.27;55.31
40838;BME280;29632;49.168;9.848;2022-11-21T04:25:28;95763.00;;;8.28;55.32
40838;BME280;29632;49.168;9.848;2022-11-21T04:28:00;95762.03;;;8.29;55.28
40838;BME280;29632;49.168;9.848;2022-11-21T04:30:27;95755.91;;;8.30;55.09
40838;BME280;29632;49.168;9.848;2022-11-21T04:32:53;95755.56;;;8.33;55.15
40838;BME280;29632;49.168;9.848;2022-11-21T04:35:19;95758.66;;;8.37;55.38
40838;BME280;29632;49.168;9.848;2022-11-21T04:37:45;95759.50;;;8.37;54.99
40838;BME280;29632;49.168;9.848;2022-11-21T04:40:11;95759.50;;;8.37;54.72
40838;BME280;29632;49.168;9.848;2022-11-21T04:42:44;95748.63;;;8.34;54.89
40838;BME280;29632;49.168;9.848;2022-11-21T04:45:11;95757.38;;;8.32;55.05
40838;BME280;29632;49.168;9.848;2022-11-21T04:47:38;95757.50;;;8.31;55.00
40838;BME280;29632;49.168;9.848;2022-11-21T04:50:04;95754.78;;;8.32;55.44
40838;BME280;29632;49.168;9.848;2022-11-21T04:52:30;95762.09;;;8.37;55.13
40838;BME280;29632;49.168;9.848;2022-11-21T04:54:56;95752.09;;;8.42;55.15
40838;BME280;29632;49.168;9.848;2022-11-21T04:57:21;95761.19;;;8.46;55.39
40838;BME280;29632;49.168;9.848;2022-11-21T04:59:47;95754.06;;;8.48;54.85
40838;BME280;29632;49.168;9.848;2022-11-21T05:02:13;95751.16;;;8.52;55.14
40838;BME280;29632;49.168;9.848;2022-11-21T05:04:38;95751.50;;;8.57;54.91
40838;BME280;29632;49.168;9.848;2022-11-21T05:07:04;95753.78;;;8.60;54.66
40838;BME280;29632;49.168;9.848;2022-11-21T05:09:30;95752.00;;;8.60;54.73
40838;BME280;29632;49.168;9.848;2022-11-21T05:11:55;95763.69;;;8.56;54.92
40838;BME280;29632;49.168;9.848;2022-11-21T05:14:40;95763.00;;;8.54;55.01
40838;BME280;29632;49.168;9.848;2022-11-21T05:17:05;95759.28;;;8.57;55.21
40838;BME280;29632;49.168;9.848;2022-11-21T05:19:31;95758.97;;;8.60;55.09
40838;BME280;29632;49.168;9.848;2022-11-21T05:21:56;95751.34;;;8.66;55.52
40838;BME280;29632;49.168;9.848;2022-11-21T05:24:22;95744.59;;;8.74;55.23
40838;BME280;29632;49.168;9.848;2022-11-21T05:26:48;95748.19;;;8.81;55.28
40838;BME280;29632;49.168;9.848;2022-11-21T05:29:13;95746.41;;;8.81;54.84
40838;BME280;29632;49.168;9.848;2022-11-21T05:31:39;95747.03;;;8.83;55.20
40838;BME280;29632;49.168;9.848;2022-11-21T05:34:05;95749.31;;;8.86;54.92
40838;BME280;29632;49.168;9.848;2022-11-21T05:36:30;95747.22;;;8.90;54.89
40838;BME280;29632;49.168;9.848;2022-11-21T05:38:56;95745.13;;;8.94;55.11
40838;BME280;29632;49.168;9.848;2022-11-21T05:41:22;95742.84;;;8.91;55.22
40838;BME280;29632;49.168;9.848;2022-11-21T05:43:47;95751.63;;;8.90;55.24
40838;BME280;29632;49.168;9.848;2022-11-21T05:46:16;95749.03;;;8.90;55.26
40838;BME280;29632;49.168;9.848;2022-11-21T05:48:43;95753.06;;;8.92;55.21
40838;BME280;29632;49.168;9.848;2022-11-21T05:51:08;95748.53;;;8.94;54.92
40838;BME280;29632;49.168;9.848;2022-11-21T05:53:34;95756.97;;;8.96;55.56
40838;BME280;29632;49.168;9.848;2022-11-21T05:56:05;95751.47;;;8.99;55.18
40838;BME280;29632;49.168;9.848;2022-11-21T05:58:31;95759.25;;;8.99;54.96
40838;BME280;29632;49.168;9.848;2022-11-21T06:00:57;95760.06;;;9.00;55.54
40838;BME280;29632;49.168;9.848;2022-11-21T06:03:24;95764.94;;;9.03;55.11
40838;BME280;29632;49.168;9.848;2022-11-21T06:08:36;95769.50;;;9.09;55.58
40838;BME280;29632;49.168;9.848;2022-11-21T06:11:03;95769.66;;;9.07;55.25
40838;BME280;29632;49.168;9.848;2022-11-21T06:13:29;95763.19;;;9.03;55.02
40838;BME280;29632;49.168;9.848;2022-11-21T06:16:06;95762.34;;;9.03;55.41
40838;BME280;29632;49.168;9.848;2022-11-21T06:18:36;95768.38;;;9.03;55.30
40838;BME280;29632;49.168;9.848;2022-11-21T06:21:04;95773.22;;;9.06;55.05
40838;BME280;29632;49.168;9.848;2022-11-21T06:23:30;95779.06;;;9.08;55.17
40838;BME280;29632;49.168;9.848;2022-11-21T06:25:57;95771.78;;;9.04;55.16
40838;BME280;29632;49.168;9.848;2022-11-21T06:28:34;95769.63;;;8.99;55.43
40838;BME280;29632;49.168;9.848;2022-11-21T06:31:08;95772.88;;;9.01;55.29
40838;BME280;29632;49.168;9.848;2022-11-21T06:33:34;95781.03;;;9.06;55.81
40838;BME280;29632;49.168;9.848;2022-11-21T06:36:04;95775.84;;;9.15;55.71
40838;BME280;29632;49.168;9.848;2022-11-21T06:38:31;95781.38;;;9.20;55.06
40838;BME280;29632;49.168;9.848;2022-11-21T06:40:56;95776.53;;;9.25;55.54
40838;BME280;29632;49.168;9.848;2022-11-21T06:43:23;95782.22;;;9.29;55.29
40838;BME280;29632;49.168;9.848;2022-11-21T06:45:48;95786.44;;;9.30;55.15
40838;BME280;29632;49.168;9.848;2022-11-21T06:48:14;95792.28;;;9.32;55.08
40838;BME280;29632;49.168;9.848;2022-11-21T06:50:40;95786.75;;;9.35;55.09
40838;BME280;29632;49.168;9.848;2022-11-21T06:53:05;95794.72;;;9.33;55.05
40838;BME280;29632;49.168;9.848;2022-11-21T06:55:31;95797.50;;;9.32;55.32
40838;BME280;29632;49.168;9.848;2022-11-21T06:57:58;95795.53;;;9.34;55.16
40838;BME280;29632;49.168;9.848;2022-11-21T07:00:25;95800.25;;;9.38;55.38
40838;BME280;29632;49.168;9.848;2022-11-21T07:02:53;95802.53;;;9.41;55.30
40838;BME280;29632;49.168;9.848;2022-11-21T07:05:18;95804.81;;;9.44;55.19
40838;BME280;29632;49.168;9.848;2022-11-21T07:07:44;95807.09;;;9.48;55.47
40838;BME280;29632;49.168;9.848;2022-11-21T07:10:10;95798.16;;;9.50;55.09
40838;BME280;29632;49.168;9.848;2022-11-21T07:12:35;95796.88;;;9.54;54.74
40838;BME280;29632;49.168;9.848;2022-11-21T07:15:20;95802.72;;;9.56;55.51
40838;BME280;29632;49.168;9.848;2022-11-21T07:17:45;95798.31;;;9.57;55.36
40838;BME280;29632;49.168;9.848;2022-11-21T07:20:11;95802.56;;;9.58;54.99
40838;BME280;29632;49.168;9.848;2022-11-21T07:22:37;95807.75;;;9.58;54.98
40838;BME280;29632;49.168;9.848;2022-11-21T07:25:02;95804.16;;;9.59;55.32
40838;BME280;29632;49.168;9.848;2022-11-21T07:27:29;95797.84;;;9.61;54.90
40838;BME280;29632;49.168;9.848;2022-11-21T07:29:54;95799.44;;;9.62;55.28
40838;BME280;29632;49.168;9.848;2022-11-21T07:32:26;95793.28;;;9.63;55.10
40838;BME280;29632;49.168;9.848;2022-11-21T07:34:52;95790.53;;;9.65;54.85
40838;BME280;29632;49.168;9.848;2022-11-21T07:37:18;95795.56;;;9.67;55.05
40838;BME280;29632;49.168;9.848;2022-11-21T07:39:44;95790.84;;;9.70;55.21
40838;BME280;29632;49.168;9.848;2022-11-21T07:42:09;95800.09;;;9.73;55.22
40838;BME280;29632;49.168;9.848;2022-11-21T07:44:35;95793.44;;;9.78;55.29
40838;BME280;29632;49.168;9.848;2022-11-21T07:47:00;95799.97;;;9.82;55.06
40838;BME280;29632;49.168;9.848;2022-11-21T07:49:27;95792.81;;;9.85;54.71
40838;BME280;29632;49.168;9.848;2022-11-21T07:51:52;95797.53;;;9.89;55.19
40838;BME280;29632;49.168;9.848;2022-11-21T07:54:18;95784.69;;;9.88;55.21
40838;BME280;29632;49.168;9.848;2022-11-21T07:56:43;95791.00;;;9.85;55.04
40838;BME280;29632;49.168;9.848;2022-11-21T07:59:09;95790.19;;;9.85;55.01
40838;BME280;29632;49.168;9.848;2022-11-21T08:01:35;95787.59;;;9.85;55.31
40838;BME280;29632;49.168;9.848;2022-11-21T08:04:00;95792.16;;;9.82;55.27
40838;BME280;29632;49.168;9.848;2022-11-21T08:06:26;95798.81;;;9.85;55.46
40838;BME280;29632;49.168;9.848;2022-11-21T08:08:55;95790.84;;;9.87;54.91
40838;BME280;29632;49.168;9.848;2022-11-21T08:11:20;95788.09;;;9.88;54.97
40838;BME280;29632;49.168;9.848;2022-11-21T08:13:46;95794.56;;;9.92;54.88
40838;BME280;29632;49.168;9.848;2022-11-21T08:16:12;95799.63;;;9.94;55.38
40838;BME280;29632;49.168;9.848;2022-11-21T08:18:37;95792.81;;;9.93;54.76
40838;BME280;29632;49.168;9.848;2022-11-21T08:21:03;95791.81;;;9.94;54.84
40838;BME280;29632;49.168;9.848;2022-11-21T08:23:30;95797.84;;;9.94;54.94
40838;BME280;29632;49.168;9.848;2022-11-21T08:25:56;95801.41;;;9.93;54.86
40838;BME280;29632;49.168;9.848;2022-11-21T08:28:22;95806.63;;;9.93;55.35
40838;BME280;29632;49.168;9.848;2022-11-21T08:30:47;95814.56;;;9.92;55.07
40838;BME280;29632;49.168;9.848;2022-11-21T08:33:14;95817.00;;;9.93;55.45
40838;BME280;29632;49.168;9.848;2022-11-21T08:35:39;95816.22;;;9.93;55.18
40838;BME280;29632;49.168;9.848;2022-11-21T08:38:06;95813.63;;;9.93;54.96
40838;BME280;29632;49.168;9.848;2022-11-21T08:40:32;95808.06;;;9.96;55.01
40838;BME280;29632;49.168;9.848;2022-11-21T08:43:08;95811.66;;;9.95;55.17
40838;BME280;29632;49.168;9.848;2022-11-21T08:45:35;95814.91;;;9.97;54.86
40838;BME280;29632;49.168;9.848;2022-11-21T08:48:01;95811.97;;;10.00;55.31
40838;BME280;29632;49.168;9.848;2022-11-21T08:50:27;95804.00;;;10.01;55.13
40838;BME280;29632;49.168;9.848;2022-11-21T08:52:58;95809.06;;;10.03;54.76
40838;BME280;29632;49.168;9.848;2022-11-21T08:55:24;95806.09;;;10.06;54.97
40838;BME280;29632;49.168;9.848;2022-11-21T08:57:50;95810.66;;;10.04;55.18
40838;BME280;29632;49.168;9.848;2022-11-21T09:00:15;95807.25;;;10.04;55.02
40838;BME280;29632;49.168;9.848;2022-11-21T09:02:41;95810.03;;;10.02;54.98
40838;BME280;29632;49.168;9.848;2022-11-21T09:05:07;95808.88;;;10.05;55.24
40838;BME280;29632;49.168;9.848;2022-11-21T09:07:33;95809.38;;;10.08;54.76
40838;BME280;29632;49.168;9.848;2022-11-21T09:09:58;95807.91;;;10.06;55.06
40838;BME280;29632;49.168;9.848;2022-11-21T09:12:24;95806.09;;;10.06;55.21
40838;BME280;29632;49.168;9.848;2022-11-21T09:14:50;95800.75;;;10.08;55.12
40838;BME280;29632;49.168;9.848;2022-11-21T09:17:34;95798.97;;;10.08;55.16
40838;BME280;29632;49.168;9.848;2022-11-21T09:20:18;95803.19;;;10.09;55.17
40838;BME280;29632;49.168;9.848;2022-11-21T09:22:44;95801.69;;;10.15;55.05
40838;BME280;29632;49.168;9.848;2022-11-21T09:25:09;95800.75;;;10.16;54.69
40838;BME280;29632;49.168;9.848;2022-11-21T09:27:35;95799.59;;;10.18;54.70
40838;BME280;29632;49.168;9.848;2022-11-21T09:30:01;95799.91;;;10.24;55.06
40838;BME280;29632;49.168;9.848;2022-11-21T09:32:26;95801.38;;;10.26;54.99
40838;BME280;29632;49.168;9.848;2022-11-21T09:34:52;95797.63;;;10.29;54.55
40838;BME280;29632;49.168;9.848;2022-11-21T09:37:17;95809.66;;;10.30;54.90
40838;BME280;29632;49.168;9.848;2022-11-21T09:39:43;95810.47;;;10.30;54.82
40838;BME280;29632;49.168;9.848;2022-11-21T09:45:33;95799.41;;;10.28;54.70
40838;BME280;29632;49.168;9.848;2022-11-21T09:48:11;95796.00;;;10.28;54.53
40838;BME280;29632;49.168;9.848;2022-11-21T09:50:43;95792.94;;;10.24;54.87
40838;BME280;29632;49.168;9.848;2022-11-21T09:53:16;95786.09;;;10.23;54.68
40838;BME280;29632;49.168;9.848;2022-11-21T09:55:50;95792.09;;;10.24;54.54
40838;BME280;29632;49.168;9.848;2022-11-21T09:58:37;95788.53;;;10.25;54.46
40838;BME280;29632;49.168;9.848;2022-11-21T10:01:04;95787.56;;;10.26;54.39
40838;BME280;29632;49.168;9.848;2022-11-21T10:03:43;95784.97;;;10.26;54.83
40838;BME280;29632;49.168;9.848;2022-11-21T10:09:17;95791.44;;;10.30;54.78
40838;BME280;29632;49.168;9.848;2022-11-21T10:11:47;95792.25;;;10.30;54.66
40838;BME280;29632;49.168;9.848;2022-11-21T10:20:32;95770.94;;;10.43;54.52
40838;BME280;29632;49.168;9.848;2022-11-21T10:23:15;95770.28;;;10.49;54.55
40838;BME280;29632;49.168;9.848;2022-11-21T10:25:55;95765.22;;;10.56;54.41
40838;BME280;29632;49.168;9.848;2022-11-21T10:28:38;95759.16;;;10.64;54.37
40838;BME280;29632;49.168;9.848;2022-11-21T10:31:11;95757.63;;;10.77;54.22
40838;BME280;29632;49.168;9.848;2022-11-21T10:33:38;95755.25;;;10.99;54.25
40838;BME280;29632;49.168;9.848;2022-11-21T10:38:37;95733.03;;;11.34;54.01
40838;BME280;29632;49.168;9.848;2022-11-21T10:41:20;95737.72;;;11.62;53.87
40838;BME280;29632;49.168;9.848;2022-11-21T10:43:58;95739.94;;;11.88;53.45
40838;BME280;29632;49.168;9.848;2022-11-21T10:46:56;95731.16;;;12.04;53.41
40838;BME280;29632;49.168;9.848;2022-11-21T10:49:22;95727.38;;;12.07;53.12
40838;BME280;29632;49.168;9.848;2022-11-21T10:52:10;95724.88;;;12.14;53.08
40838;BME280;29632;49.168;9.848;2022-11-21T10:55:07;95723.53;;;12.33;52.94
40838;BME280;29632;49.168;9.848;2022-11-21T11:03:19;95703.31;;;12.56;52.93
40838;BME280;29632;49.168;9.848;2022-11-21T11:05:30;95697.66;;;12.53;53.03
40838;BME280;29632;49.168;9.848;2022-11-21T11:08:12;95696.56;;;12.62;52.85
40838;BME280;29632;49.168;9.848;2022-11-21T11:10:59;95695.03;;;12.68;52.78
40838;BME280;29632;49.168;9.848;2022-11-21T11:13:25;95695.47;;;12.71;52.85
40838;BME280;29632;49.168;9.848;2022-11-21T11:18:38;95693.22;;;12.68;53.27
40838;BME280;29632;49.168;9.848;2022-11-21T11:21:17;95683.34;;;12.63;53.11
40838;BME280;29632;49.168;9.848;2022-11-21T11:23:44;95683.06;;;12.58;53.14
40838;BME280;29632;49.168;9.848;2022-11-21T11:29:15;95675.16;;;12.52;53.65
40838;BME280;29632;49.168;9.848;2022-11-21T11:31:48;95666.25;;;12.46;53.41
40838;BME280;29632;49.168;9.848;2022-11-21T11:34:15;95665.44;;;12.45;53.60
40838;BME280;29632;49.168;9.848;2022-11-21T11:37:02;95664.63;;;12.45;53.72
40838;BME280;29632;49.168;9.848;2022-11-21T11:39:51;95651.38;;;12.46;53.60
40838;BME280;29632;49.168;9.848;2022-11-21T11:45:15;95642.84;;;12.38;53.45
40838;BME280;29632;49.168;9.848;2022-11-21T11:48:06;95646.00;;;12.33;53.62
40838;BME280;29632;49.168;9.848;2022-11-21T11:50:41;95646.63;;;12.35;53.73
40838;BME280;29632;49.168;9.848;2022-11-21T11:53:28;95643.56;;;12.46;53.79
40838;BME280;29632;49.168;9.848;2022-11-21T11:56:06;95640.34;;;12.66;53.47
40838;BME280;29632;49.168;9.848;2022-11-21T11:58:44;95635.28;;;12.79;53.26
40838;BME280;29632;49.168;9.848;2022-11-21T12:04:04;95619.97;;;12.98;52.96
40838;BME280;29632;49.168;9.848;2022-11-21T12:12:17;95606.06;;;13.19;52.85
40838;BME280;29632;49.168;9.848;2022-11-21T12:15:18;95594.25;;;13.23;52.64
40838;BME280;29632;49.168;9.848;2022-11-21T12:21:19;95592.19;;;13.18;52.40
40838;BME280;29632;49.168;9.848;2022-11-21T12:23:47;95586.97;;;13.18;52.72
40838;BME280;29632;49.168;9.848;2022-11-21T12:37:08;95564.38;;;13.32;52.56
40838;BME280;29632;49.168;9.848;2022-11-21T12:40:31;95570.59;;;13.31;52.69
40838;BME280;29632;49.168;9.848;2022-11-21T12:42:52;95566.09;;;13.25;52.71
40838;BME280;29632;49.168;9.848;2022-11-21T12:45:28;95558.09;;;13.27;52.79
40838;BME280;29632;49.168;9.848;2022-11-21T12:48:15;95559.31;;;13.31;52.72
40838;BME280;29632;49.168;9.848;2022-11-21T12:51:08;95552.28;;;13.31;52.75
40838;BME280;29632;49.168;9.848;2022-11-21T12:54:31;95552.03;;;13.26;52.39
40838;BME280;29632;49.168;9.848;2022-11-21T12:57:12;95551.81;;;13.21;52.55
40838;BME280;29632;49.168;9.848;2022-11-21T13:05:35;95540.03;;;13.03;52.84
40838;BME280;29632;49.168;9.848;2022-11-21T13:08:11;95532.78;;;13.06;52.63
40838;BME280;29632;49.168;9.848;2022-11-21T13:10:40;95529.41;;;13.12;52.47
40838;BME280;29632;49.168;9.848;2022-11-21T13:13:17;95532.84;;;13.12;52.41
40838;BME280;29632;49.168;9.848;2022-11-21T13:16:08;95519.78;;;13.19;52.45
40838;BME280;29632;49.168;9.848;2022-11-21T13:18:39;95519.78;;;13.19;52.65
40838;BME280;29632;49.168;9.848;2022-11-21T13:27:28;95519.22;;;13.23;52.44
40838;BME280;29632;49.168;9.848;2022-11-21T13:30:19;95518.44;;;13.23;52.49
40838;BME280;29632;49.168;9.848;2022-11-21T13:45:45;95495.59;;;14.35;50.97
40838;BME280;29632;49.168;9.848;2022-11-21T13:51:26;95479.50;;;14.38;51.49
40838;BME280;29632;49.168;9.848;2022-11-21T14:07:40;95442.00;;;14.24;51.82
40838;BME280;29632;49.168;9.848;2022-11-21T14:12:50;95441.16;;;14.17;52.04
40838;BME280;29632;49.168;9.848;2022-11-21T14:15:37;95452.81;;;14.08;52.06
40838;BME280;29632;49.168;9.848;2022-11-21T14:18:14;95439.09;;;13.99;51.84
40838;BME280;29632;49.168;9.848;2022-11-21T14:20:54;95428.06;;;14.04;51.88
40838;BME280;29632;49.168;9.848;2022-11-21T14:23:26;95431.28;;;14.06;51.98
40838;BME280;29632;49.168;9.848;2022-11-21T14:28:34;95426.03;;;13.99;51.91
40838;BME280;29632;49.168;9.848;2022-11-21T14:33:28;95417.38;;;13.98;51.71
40838;BME280;29632;49.168;9.848;2022-11-21T14:36:18;95415.34;;;14.01;51.68
40838;BME280;29632;49.168;9.848;2022-11-21T14:39:06;95403.69;;;14.03;51.60
40838;BME280;29632;49.168;9.848;2022-11-21T14:41:33;95394.03;;;14.04;51.31
40838;BME280;29632;49.168;9.848;2022-11-21T14:46:33;95379.13;;;14.04;51.31
40838;BME280;29632;49.168;9.848;2022-11-21T14:51:41;95371.66;;;14.01;51.55
40838;BME280;29632;49.168;9.848;2022-11-21T14:54:22;95376.28;;;13.99;51.22
40838;BME280;29632;49.168;9.848;2022-11-21T14:57:02;95369.47;;;13.98;51.06
40838;BME280;29632;49.168;9.848;2022-11-21T14:59:40;95379.53;;;13.94;51.49
40838;BME280;29632;49.168;9.848;2022-11-21T15:02:27;95374.69;;;13.91;51.36
40838;BME280;29632;49.168;9.848;2022-11-21T15:05:00;95367.41;;;13.87;51.54
40838;BME280;29632;49.168;9.848;2022-11-21T15:07:28;95366.22;;;13.83;51.62
40838;BME280;29632;49.168;9.848;2022-11-21T15:09:59;95368.41;;;13.79;51.54
40838;BME280;29632;49.168;9.848;2022-11-21T15:12:32;95364.78;;;13.73;51.36
40838;BME280;29632;49.168;9.848;2022-11-21T15:15:18;95366.38;;;13.68;51.71
40838;BME280;29632;49.168;9.848;2022-11-21T15:17:46;95354.88;;;13.62;51.47
40838;BME280;29632;49.168;9.848;2022-11-21T15:22:40;95354.25;;;13.53;51.78
40838;BME280;29632;49.168;9.848;2022-11-21T15:25:20;95345.19;;;13.49;51.32
40838;BME280;29632;49.168;9.848;2022-11-21T15:27:47;95331.91;;;13.44;51.16
40838;BME280;29632;49.168;9.848;2022-11-21T15:33:08;95327.63;;;13.30;51.41
40838;BME280;29632;49.168;9.848;2022-11-21T15:41:02;95302.59;;;13.07;51.52